Time;durP1;ratioP1;P1;durP2;ratioP2;P2;SDS_P1;SDS_P2;PMS_P1;PMS_P2;Temp;Humidity;BMP_temperature;BMP_pressure;BME280_temperature;BME280_humidity;BME280_pressure;Samples;Min_cycle;Max_cycle;Signal;HPM_P1;HPM_P2
2022/11/20 00:00:48;;;;;;;23.00;15.20;;;-2.70;99.90;;;;;;5015545;28;20190;-78
2022/11/20 00:03:14;;;;;;;18.93;14.07;;;-2.70;99.90;;;;;;5016086;28;20191;-78
2022/11/20 00:05:40;;;;;;;18.83;13.77;;;-2.60;99.90;;;;;;5015735;28;20203;-80
2022/11/20 00:08:05;;;;;;;18.90;14.03;;;-2.70;99.90;;;;;;5016038;28;20183;-77
2022/11/20 00:10:31;;;;;;;19.37;13.53;;;-2.60;99.90;;;;;;5015482;28;20594;-79
2022/11/20 00:12:58;;;;;;;18.63;13.03;;;-2.60;99.90;;;;;;5013981;28;20226;-77
2022/11/20 00:15:24;;;;;;;18.43;12.13;;;-2.60;99.90;;;;;;5013322;28;20223;-77
2022/11/20 00:17:50;;;;;;;18.17;13.40;;;-2.60;99.90;;;;;;5013890;28;20210;-77
2022/11/20 00:20:16;;;;;;;19.27;13.77;;;-2.60;99.90;;;;;;5013631;28;20701;-78
2022/11/20 00:22:41;;;;;;;17.43;12.40;;;-2.60;99.90;;;;;;5013592;28;20286;-78
2022/11/20 00:25:07;;;;;;;20.77;13.87;;;-2.60;99.90;;;;;;5013319;28;20196;-78
2022/11/20 00:27:33;;;;;;;20.67;13.50;;;-2.60;99.90;;;;;;5013570;28;20285;-78
2022/11/20 00:29:58;;;;;;;19.00;13.83;;;-2.70;99.90;;;;;;5011918;28;20179;-77
2022/11/20 00:32:24;;;;;;;18.93;13.33;;;-2.80;99.90;;;;;;5013608;28;20184;-78
2022/11/20 00:34:49;;;;;;;20.47;13.87;;;-2.80;99.90;;;;;;5013357;28;20337;-78
2022/11/20 00:37:15;;;;;;;18.33;13.83;;;-2.80;99.90;;;;;;5013361;28;20206;-77
2022/11/20 00:39:40;;;;;;;18.83;13.67;;;-2.90;99.90;;;;;;5013323;28;20196;-77
2022/11/20 00:42:06;;;;;;;22.17;14.50;;;-2.90;99.90;;;;;;5011791;28;20247;-77
2022/11/20 00:44:32;;;;;;;23.37;14.23;;;-2.90;99.90;;;;;;5012817;28;20200;-78
2022/11/20 00:46:57;;;;;;;17.77;13.20;;;-2.90;99.90;;;;;;5013057;28;20609;-77
2022/11/20 00:49:23;;;;;;;18.80;13.40;;;-3.00;99.90;;;;;;5013304;28;20180;-79
2022/11/20 00:51:48;;;;;;;18.33;13.70;;;-3.20;99.90;;;;;;5011847;28;20183;-77
2022/11/20 00:54:14;;;;;;;18.30;13.70;;;-3.30;99.90;;;;;;5012950;28;20600;-78
2022/11/20 00:56:40;;;;;;;19.27;14.13;;;-3.30;99.90;;;;;;5013066;28;20670;-77
2022/11/20 00:59:05;;;;;;;20.67;13.43;;;-3.50;99.90;;;;;;5012961;28;20226;-77
2022/11/20 01:01:31;;;;;;;18.33;13.03;;;-3.60;99.90;;;;;;5011723;28;20203;-77
2022/11/20 01:03:59;;;;;;;19.13;14.20;;;-3.70;99.90;;;;;;5011666;28;20604;-78
2022/11/20 01:06:28;;;;;;;18.90;13.50;;;-3.70;99.90;;;;;;5012714;28;20298;-78
2022/11/20 01:08:56;;;;;;;20.70;14.03;;;-3.80;99.90;;;;;;5012894;28;20186;-77
2022/11/20 01:11:34;;;;;;;18.43;13.43;;;-3.80;99.90;;;;;;5012947;28;20645;-78
2022/11/20 01:14:02;;;;;;;18.67;13.27;;;-3.90;99.90;;;;;;5012677;28;20250;-77
2022/11/20 01:16:31;;;;;;;18.00;13.20;;;-3.90;99.90;;;;;;5011297;28;20210;-78
2022/11/20 01:18:58;;;;;;;17.23;13.60;;;-4.10;99.90;;;;;;5012684;28;20187;-78
2022/11/20 01:21:27;;;;;;;21.53;14.40;;;-4.10;99.90;;;;;;5013045;28;20199;-78
2022/11/20 01:23:53;;;;;;;22.13;14.67;;;-4.20;99.90;;;;;;5013003;28;20187;-78
2022/11/20 01:26:21;;;;;;;21.17;14.27;;;-4.30;99.90;;;;;;5012644;28;20192;-77
2022/11/20 01:28:47;;;;;;;23.77;14.57;;;-4.30;99.90;;;;;;5012729;28;20233;-77
2022/11/20 01:31:15;;;;;;;20.80;14.07;;;-4.30;99.90;;;;;;5012974;28;20297;-79
2022/11/20 01:33:41;;;;;;;25.07;14.87;;;-4.40;99.90;;;;;;5011234;28;20598;-78
2022/11/20 01:36:08;;;;;;;20.93;14.20;;;-4.50;99.90;;;;;;5012668;28;20199;-78
2022/11/20 01:38:34;;;;;;;22.43;14.33;;;-4.50;99.90;;;;;;5012789;28;20183;-77
2022/11/20 01:40:59;;;;;;;22.27;14.93;;;-4.50;99.90;;;;;;5013241;28;20609;-78
2022/11/20 01:43:26;;;;;;;23.57;15.17;;;-4.60;99.90;;;;;;5012910;28;20183;-78
2022/11/20 01:46:06;;;;;;;24.97;14.83;;;-4.60;99.90;;;;;;5012654;28;20191;-78
2022/11/20 01:49:03;;;;;;;22.37;14.37;;;-4.60;1.00;;;;;;5012626;28;20186;-78
2022/11/20 01:51:48;;;;;;;22.77;13.90;;;-4.70;1.00;;;;;;5008074;28;20227;-78
2022/11/20 01:54:23;;;;;;;22.07;13.83;;;-4.70;1.00;;;;;;5012758;28;20176;-78
2022/11/20 01:56:54;;;;;;;23.63;14.00;;;-4.70;1.00;;;;;;5012801;28;20171;-78
2022/11/20 01:59:22;;;;;;;26.50;14.27;;;-4.80;1.00;;;;;;5012876;28;20195;-78
2022/11/20 02:01:48;;;;;;;25.73;14.90;;;-4.70;1.00;;;;;;5013086;28;20206;-77
2022/11/20 02:04:15;;;;;;;23.50;14.80;;;-4.70;1.00;;;;;;5011522;28;20179;-78
2022/11/20 02:06:57;;;;;;;21.70;15.07;;;-4.80;1.00;;;;;;5013271;28;20176;-79
2022/11/20 02:09:22;;;;;;;21.33;13.60;;;-4.90;1.00;;;;;;5013139;28;20182;-79
2022/11/20 02:11:48;;;;;;;22.20;13.73;;;-5.00;1.00;;;;;;5013107;28;20188;-78
2022/11/20 02:14:14;;;;;;;23.63;14.73;;;-5.00;1.00;;;;;;5011325;28;20188;-78
2022/11/20 02:16:45;;;;;;;24.83;14.87;;;-4.90;1.00;;;;;;5013551;28;20179;-77
2022/11/20 02:19:28;;;;;;;20.80;14.50;;;-4.90;1.00;;;;;;5015402;28;20171;-78
2022/11/20 02:22:10;;;;;;;26.40;15.00;;;-4.90;1.00;;;;;;5016800;28;20210;-79
2022/11/20 02:24:36;;;;;;;22.43;13.83;;;-5.00;1.00;;;;;;5016002;28;20279;-79
2022/11/20 02:27:07;;;;;;;23.20;13.70;;;-5.00;1.00;;;;;;5018124;28;20588;-79
2022/11/20 02:29:42;;;;;;;22.73;14.63;;;-5.00;1.00;;;;;;5019694;28;20179;-79
2022/11/20 02:32:26;;;;;;;20.33;13.70;;;-5.00;1.00;;;;;;5020256;28;20274;-78
2022/11/20 02:34:52;;;;;;;18.40;12.87;;;-5.00;1.00;;;;;;5022049;28;20218;-78
2022/11/20 02:37:19;;;;;;;22.60;14.10;;;-5.10;1.00;;;;;;5021804;28;20176;-78
2022/11/20 02:39:47;;;;;;;20.33;14.20;;;-5.10;1.00;;;;;;5020853;28;20183;-79
2022/11/20 02:42:12;;;;;;;18.67;13.30;;;-5.20;1.00;;;;;;5020026;28;20203;-79
2022/11/20 02:44:38;;;;;;;22.03;13.43;;;-5.20;1.00;;;;;;5020659;28;20201;-78
2022/11/20 02:47:03;;;;;;;19.57;12.47;;;-5.20;1.00;;;;;;5020003;28;20234;-78
2022/11/20 02:49:29;;;;;;;19.43;12.60;;;-5.20;1.00;;;;;;5020256;28;20176;-79
2022/11/20 02:51:55;;;;;;;22.23;12.80;;;-5.10;1.00;;;;;;5020353;28;20184;-79
2022/11/20 02:54:20;;;;;;;19.17;12.10;;;-5.20;1.00;;;;;;5020420;28;20215;-80
2022/11/20 02:56:46;;;;;;;19.27;12.13;;;-5.40;1.00;;;;;;5020619;28;20184;-79
2022/11/20 02:59:11;;;;;;;20.13;13.67;;;-5.30;1.00;;;;;;5022152;28;20184;-80
2022/11/20 03:01:37;;;;;;;19.20;13.30;;;-5.30;1.00;;;;;;5019507;28;20207;-79
2022/11/20 03:04:03;;;;;;;18.43;12.27;;;-5.30;1.00;;;;;;5018759;28;20617;-79
2022/11/20 03:06:28;;;;;;;18.20;11.80;;;-5.20;1.00;;;;;;5018465;28;20182;-78
2022/11/20 03:08:54;;;;;;;18.40;11.73;;;-5.20;1.00;;;;;;5018254;28;20195;-78
2022/11/20 03:11:20;;;;;;;18.67;11.97;;;-5.30;1.00;;;;;;5018130;28;20179;-78
2022/11/20 03:13:45;;;;;;;20.83;12.77;;;-5.30;1.00;;;;;;5018516;28;20241;-78
2022/11/20 03:16:17;;;;;;;18.23;11.70;;;-5.30;1.00;;;;;;5014917;28;20286;-78
2022/11/20 03:18:43;;;;;;;19.40;12.50;;;-5.30;1.00;;;;;;5016332;28;20187;-79
2022/11/20 03:21:11;;;;;;;20.10;11.50;;;-5.30;1.00;;;;;;5017467;28;20207;-78
2022/11/20 03:23:37;;;;;;;17.33;11.30;;;-5.20;1.00;;;;;;5016875;28;20178;-78
2022/11/20 03:26:14;;;;;;;16.93;11.50;;;-5.20;1.00;;;;;;5013648;28;20572;-78
2022/11/20 03:28:41;;;;;;;17.50;11.00;;;-5.20;1.00;;;;;;5017887;28;20698;-78
2022/11/20 03:31:13;;;;;;;15.93;10.90;;;-5.20;1.00;;;;;;5017093;28;20194;-78
2022/11/20 03:33:40;;;;;;;16.90;10.87;;;-5.30;1.00;;;;;;5018144;28;20199;-79
2022/11/20 03:36:11;;;;;;;17.63;11.23;;;-5.30;1.00;;;;;;5017339;28;20250;-78
2022/11/20 03:38:37;;;;;;;19.10;11.60;;;-5.30;1.00;;;;;;5016538;28;20172;-79
2022/11/20 03:41:08;;;;;;;24.03;10.90;;;-5.20;1.00;;;;;;5013310;28;20271;-77
2022/11/20 03:43:34;;;;;;;17.93;11.60;;;-5.30;1.00;;;;;;5013966;28;20175;-78
2022/11/20 03:46:00;;;;;;;20.17;11.97;;;-5.30;1.00;;;;;;5013801;28;20195;-78
2022/11/20 03:48:26;;;;;;;19.80;11.83;;;-5.30;1.00;;;;;;5013620;28;20175;-78
2022/11/20 03:50:53;;;;;;;17.53;10.97;;;-5.30;1.00;;;;;;5013994;28;20183;-78
2022/11/20 03:53:19;;;;;;;17.13;11.10;;;-5.20;1.00;;;;;;5013802;28;20207;-78
2022/11/20 03:55:50;;;;;;;16.33;10.67;;;-5.10;1.00;;;;;;5013542;28;20192;-77
2022/11/20 03:58:15;;;;;;;18.10;11.60;;;-5.10;1.00;;;;;;5013644;28;20218;-78
2022/11/20 04:00:41;;;;;;;17.63;11.57;;;-5.10;1.00;;;;;;5013797;28;20171;-78
2022/11/20 04:03:07;;;;;;;16.63;11.07;;;-5.10;99.90;;;;;;5013742;28;20204;-78
2022/11/20 04:05:33;;;;;;;18.13;11.63;;;-5.10;99.90;;;;;;5017090;28;20184;-79
2022/11/20 04:07:59;;;;;;;17.20;10.90;;;-5.20;99.90;;;;;;5018238;28;20168;-78
2022/11/20 04:10:25;;;;;;;19.53;11.50;;;-5.10;99.90;;;;;;5017901;28;20164;-79
2022/11/20 04:12:50;;;;;;;17.07;11.37;;;-5.10;99.90;;;;;;5016384;28;20176;-77
2022/11/20 04:15:16;;;;;;;18.13;11.90;;;-5.20;99.90;;;;;;5016820;28;20273;-79
2022/11/20 04:17:42;;;;;;;17.27;11.50;;;-5.20;99.90;;;;;;5017969;28;20178;-77
2022/11/20 04:20:08;;;;;;;16.30;10.90;;;-5.20;99.90;;;;;;5016538;28;20203;-78
2022/11/20 04:22:33;;;;;;;16.73;11.00;;;-5.10;99.90;;;;;;5017452;28;20207;-78
2022/11/20 04:24:59;;;;;;;18.13;12.00;;;-5.10;99.90;;;;;;5017345;28;20199;-79
2022/11/20 04:27:24;;;;;;;15.90;10.67;;;-5.10;99.90;;;;;;5013796;28;20214;-76
2022/11/20 04:29:50;;;;;;;17.67;11.20;;;-5.10;99.90;;;;;;5016026;28;20737;-78
2022/11/20 04:32:15;;;;;;;16.53;11.53;;;-5.00;99.90;;;;;;5017603;28;20218;-78
2022/11/20 04:34:41;;;;;;;16.47;11.00;;;-5.00;99.90;;;;;;5016762;28;20203;-78
2022/11/20 04:37:06;;;;;;;15.07;10.73;;;-5.00;99.90;;;;;;5016430;28;20273;-78
2022/11/20 04:39:32;;;;;;;17.90;11.37;;;-5.00;99.90;;;;;;5014134;28;20182;-78
2022/11/20 04:44:42;;;;;;;15.77;10.73;;;-4.80;99.90;;;;;;5014165;28;20284;-78
2022/11/20 04:47:07;;;;;;;16.50;11.63;;;-4.80;99.90;;;;;;5012892;28;20590;-77
2022/11/20 04:49:33;;;;;;;16.27;10.97;;;-4.70;99.90;;;;;;5011352;28;20230;-76
2022/11/20 04:51:59;;;;;;;14.50;10.13;;;-4.80;99.90;;;;;;5011732;28;20557;-77
2022/11/20 04:54:25;;;;;;;16.43;10.63;;;-4.70;99.90;;;;;;5003151;28;20208;-78
2022/11/20 04:56:53;;;;;;;21.43;13.37;;;-4.70;99.90;;;;;;4993826;28;20175;-77
2022/11/20 04:59:19;;;;;;;25.63;12.57;;;-4.80;99.90;;;;;;5012590;28;20187;-77
2022/11/20 05:01:44;;;;;;;25.40;13.40;;;-4.90;99.90;;;;;;5012652;28;20207;-77
2022/11/20 05:04:10;;;;;;;24.37;13.10;;;-5.00;99.90;;;;;;5027749;28;20557;-77
2022/11/20 05:06:36;;;;;;;24.73;13.37;;;-5.00;99.90;;;;;;5027847;28;20184;-77
2022/11/20 05:09:02;;;;;;;25.07;12.93;;;-5.10;99.90;;;;;;5027893;28;20608;-77
2022/11/20 05:11:30;;;;;;;21.77;12.67;;;-5.10;99.90;;;;;;5012711;28;20190;-77
2022/11/20 05:13:58;;;;;;;22.87;12.70;;;-5.10;99.90;;;;;;5012796;28;20187;-77
2022/11/20 05:16:24;;;;;;;21.93;12.93;;;-5.10;99.90;;;;;;5012465;28;20699;-77
2022/11/20 05:18:54;;;;;;;20.83;12.67;;;-5.20;99.90;;;;;;5012678;28;20183;-77
2022/11/20 05:21:20;;;;;;;18.93;11.73;;;-5.20;99.90;;;;;;5012555;28;20203;-77
2022/11/20 05:23:46;;;;;;;18.57;12.50;;;-5.20;99.90;;;;;;5027732;28;20187;-77
2022/11/20 05:26:15;;;;;;;16.73;10.93;;;-5.10;99.90;;;;;;5012582;28;20195;-77
2022/11/20 05:28:41;;;;;;;18.73;11.80;;;-5.20;99.90;;;;;;5012646;28;20191;-78
2022/11/20 05:31:12;;;;;;;17.73;11.67;;;-5.20;99.90;;;;;;5028006;28;20176;-78
2022/11/20 05:33:41;;;;;;;17.70;11.63;;;-5.10;99.90;;;;;;5016049;28;20253;-80
2022/11/20 05:36:07;;;;;;;16.67;11.13;;;-5.10;99.90;;;;;;5015438;28;20192;-80
2022/11/20 05:38:33;;;;;;;19.03;11.93;;;-5.00;99.90;;;;;;5015224;28;20279;-80
2022/11/20 05:41:08;;;;;;;17.77;11.43;;;-5.00;99.90;;;;;;5030217;28;20191;-80
2022/11/20 05:43:35;;;;;;;16.47;10.03;;;-5.00;99.90;;;;;;5015598;28;20229;-78
2022/11/20 05:46:02;;;;;;;16.47;10.80;;;-4.90;99.90;;;;;;5008309;28;20211;-77
2022/11/20 05:48:28;;;;;;;16.53;11.33;;;-4.90;99.90;;;;;;5010123;28;20554;-77
2022/11/20 05:50:54;;;;;;;15.97;11.57;;;-4.90;99.90;;;;;;5012072;28;20188;-79
2022/11/20 05:53:19;;;;;;;15.70;11.17;;;-4.80;99.90;;;;;;5012121;28;20168;-77
2022/11/20 05:55:45;;;;;;;17.90;11.53;;;-4.80;99.90;;;;;;5011751;28;20573;-77
2022/11/20 05:58:10;;;;;;;16.90;11.70;;;-4.80;99.90;;;;;;5010882;28;20199;-78
2022/11/20 06:00:36;;;;;;;17.73;11.43;;;-4.80;99.90;;;;;;5012313;28;20178;-78
2022/11/20 06:03:02;;;;;;;18.70;11.80;;;-4.80;99.90;;;;;;5012484;28;20203;-78
2022/11/20 06:05:27;;;;;;;17.87;11.13;;;-4.80;99.90;;;;;;5015004;28;20249;-77
2022/11/20 06:07:53;;;;;;;18.07;11.93;;;-4.70;99.90;;;;;;5015623;28;20593;-77
2022/11/20 06:10:18;;;;;;;17.80;12.10;;;-4.70;99.90;;;;;;5015842;28;20172;-77
2022/11/20 06:12:44;;;;;;;21.03;13.03;;;-4.60;99.90;;;;;;5015685;28;20211;-77
2022/11/20 06:15:10;;;;;;;20.53;12.20;;;-4.60;99.90;;;;;;5014033;28;20603;-77
2022/11/20 06:17:35;;;;;;;20.47;12.40;;;-4.80;99.90;;;;;;5015578;28;20211;-77
2022/11/20 06:20:01;;;;;;;17.63;12.50;;;-4.80;99.90;;;;;;5015494;28;20183;-77
2022/11/20 06:22:27;;;;;;;17.77;11.77;;;-4.90;99.90;;;;;;5015575;28;20286;-77
2022/11/20 06:24:52;;;;;;;18.33;11.80;;;-4.90;99.90;;;;;;5015361;28;20207;-77
2022/11/20 06:27:18;;;;;;;17.70;11.93;;;-4.90;99.90;;;;;;5015357;28;20538;-78
2022/11/20 06:29:43;;;;;;;17.63;12.03;;;-4.80;99.90;;;;;;5015223;28;20187;-78
2022/11/20 06:32:09;;;;;;;18.63;12.47;;;-4.80;99.90;;;;;;5015217;28;20655;-77
2022/11/20 06:34:35;;;;;;;15.67;10.63;;;-4.70;99.90;;;;;;5014977;28;20669;-78
2022/11/20 06:37:00;;;;;;;18.50;11.10;;;-4.50;99.90;;;;;;5015195;28;20543;-77
2022/11/20 06:39:26;;;;;;;17.60;11.57;;;-4.20;99.90;;;;;;5015128;28;20176;-77
2022/11/20 06:41:51;;;;;;;18.30;11.00;;;-4.20;99.90;;;;;;5018692;28;20288;-79
2022/11/20 06:44:17;;;;;;;15.83;10.77;;;-4.30;99.90;;;;;;5018280;28;20600;-80
2022/11/20 06:46:43;;;;;;;17.13;10.87;;;-4.30;99.90;;;;;;5018419;28;20207;-80
2022/11/20 06:49:08;;;;;;;14.63;10.70;;;-4.10;99.90;;;;;;5019282;28;20258;-80
2022/11/20 06:51:34;;;;;;;17.00;11.40;;;-4.10;99.90;;;;;;5018732;28;20184;-80
2022/11/20 06:54:00;;;;;;;16.50;11.23;;;-4.20;99.90;;;;;;5017077;28;20674;-80
2022/11/20 06:56:26;;;;;;;18.20;12.13;;;-4.10;99.90;;;;;;5018109;28;20461;-80
2022/11/20 06:58:52;;;;;;;19.17;11.90;;;-4.00;99.90;;;;;;5017503;28;20179;-79
2022/11/20 07:01:18;;;;;;;14.80;10.17;;;-3.80;99.90;;;;;;5018352;28;20249;-80
2022/11/20 07:03:43;;;;;;;15.87;11.90;;;-3.80;99.90;;;;;;5017102;28;20201;-79
2022/11/20 07:06:09;;;;;;;18.57;12.30;;;-3.80;99.90;;;;;;5017525;28;20191;-79
2022/11/20 07:08:35;;;;;;;16.17;11.90;;;-3.70;99.90;;;;;;5011943;28;20192;-79
2022/11/20 07:11:04;;;;;;;17.07;11.40;;;-3.70;99.90;;;;;;5013635;28;20752;-77
2022/11/20 07:13:31;;;;;;;16.00;11.47;;;-3.60;99.90;;;;;;5014745;28;20184;-79
2022/11/20 07:16:04;;;;;;;18.53;12.33;;;-3.60;99.90;;;;;;5014478;28;20624;-78
2022/11/20 07:18:29;;;;;;;14.33;11.20;;;-3.50;99.90;;;;;;5015064;28;20207;-78
2022/11/20 07:20:55;;;;;;;18.53;12.63;;;-3.40;99.90;;;;;;5014740;28;20590;-77
2022/11/20 07:23:20;;;;;;;15.40;11.57;;;-3.40;99.90;;;;;;5014151;28;20645;-78
2022/11/20 07:25:46;;;;;;;16.23;10.30;;;-3.30;99.90;;;;;;5018746;28;20569;-78
2022/11/20 07:28:12;;;;;;;15.50;11.83;;;-3.30;99.90;;;;;;5018968;28;20724;-78
2022/11/20 07:30:37;;;;;;;16.40;11.27;;;-3.20;99.90;;;;;;5018160;28;20179;-78
2022/11/20 07:33:03;;;;;;;14.47;10.93;;;-3.10;99.90;;;;;;4999174;28;20176;-77
2022/11/20 07:35:31;;;;;;;14.63;10.73;;;-3.10;99.90;;;;;;5013319;28;20247;-79
2022/11/20 07:37:57;;;;;;;14.43;10.90;;;-3.10;99.90;;;;;;5018489;28;20573;-78
2022/11/20 07:40:22;;;;;;;14.77;11.53;;;-3.10;99.90;;;;;;5018975;28;20183;-78
2022/11/20 07:42:49;;;;;;;16.43;11.43;;;-3.00;99.90;;;;;;5010775;28;20196;-77
2022/11/20 07:45:15;;;;;;;14.87;11.07;;;-3.00;99.90;;;;;;5012949;28;20231;-78
2022/11/20 07:47:41;;;;;;;15.93;10.60;;;-3.00;99.90;;;;;;5006857;28;20222;-77
2022/11/20 07:50:07;;;;;;;13.97;9.83;;;-3.00;97.40;;;;;;5006743;28;20182;-78
2022/11/20 07:52:33;;;;;;;12.23;9.53;;;-3.00;96.00;;;;;;5006243;28;20184;-79
2022/11/20 07:54:58;;;;;;;13.20;9.17;;;-3.10;88.30;;;;;;5004598;28;20210;-77
2022/11/20 07:57:24;;;;;;;13.53;9.80;;;-3.10;95.00;;;;;;5008165;28;20195;-78
2022/11/20 07:59:49;;;;;;;13.17;9.70;;;-3.00;96.90;;;;;;5008233;28;20246;-78
2022/11/20 08:02:15;;;;;;;13.97;9.53;;;-3.00;96.50;;;;;;5007840;28;20677;-78
2022/11/20 08:04:40;;;;;;;14.73;10.57;;;-2.90;91.30;;;;;;5008009;28;20265;-77
2022/11/20 08:07:06;;;;;;;13.87;9.53;;;-3.00;91.60;;;;;;5008524;28;20789;-77
2022/11/20 08:09:32;;;;;;;13.47;9.70;;;-3.00;91.40;;;;;;5008650;28;20188;-78
2022/11/20 08:14:42;;;;;;;14.03;10.80;;;-2.90;96.70;;;;;;5008046;28;20611;-78
2022/11/20 08:17:08;;;;;;;13.60;10.13;;;-2.80;99.90;;;;;;5008106;28;20183;-78
2022/11/20 08:19:33;;;;;;;11.23;9.83;;;-2.70;99.90;;;;;;5008512;28;20188;-77
2022/11/20 08:21:59;;;;;;;12.40;9.33;;;-2.70;97.30;;;;;;5007476;28;20207;-77
2022/11/20 08:24:26;;;;;;;12.90;8.93;;;-2.70;83.80;;;;;;5006868;28;20230;-77
2022/11/20 08:26:52;;;;;;;30.27;20.43;;;-2.60;62.00;;;;;;5005366;28;20198;-78
2022/11/20 08:29:18;;;;;;;26.30;18.63;;;-2.50;72.60;;;;;;5006554;28;20189;-77
2022/11/20 08:31:44;;;;;;;20.00;14.17;;;-2.50;89.30;;;;;;5007385;28;20245;-77
2022/11/20 08:34:09;;;;;;;22.80;14.47;;;-2.40;99.90;;;;;;5006658;28;20197;-74
2022/11/20 08:36:36;;;;;;;19.33;13.93;;;-2.30;99.90;;;;;;5008138;28;20258;-79
2022/11/20 08:39:03;;;;;;;16.80;13.30;;;-2.30;99.90;;;;;;5008829;28;20198;-79
2022/11/20 08:41:32;;;;;;;16.03;11.87;;;-2.20;99.90;;;;;;5008559;28;20304;-79
2022/11/20 08:44:03;;;;;;;14.30;10.43;;;-2.10;99.90;;;;;;5008214;28;20187;-78
2022/11/20 08:46:37;;;;;;;15.43;10.57;;;-2.10;99.90;;;;;;5008138;28;20249;-78
2022/11/20 08:49:04;;;;;;;13.57;10.27;;;-2.00;93.90;;;;;;5007174;28;20195;-78
2022/11/20 08:51:30;;;;;;;13.60;10.83;;;-1.90;70.90;;;;;;5006998;28;20198;-78
2022/11/20 08:53:56;;;;;;;15.90;12.87;;;-1.90;67.10;;;;;;5006727;28;20266;-78
2022/11/20 08:56:22;;;;;;;18.57;14.37;;;-1.80;58.10;;;;;;5007130;28;20314;-79
2022/11/20 08:58:49;;;;;;;17.40;12.87;;;-1.70;77.70;;;;;;5008730;28;20207;-79
2022/11/20 09:01:15;;;;;;;11.43;8.97;;;-1.70;29.20;;;;;;5007769;28;20538;-78
2022/11/20 09:03:41;;;;;;;13.20;10.10;;;-1.50;2.30;;;;;;5006475;28;20187;-76
2022/11/20 09:06:07;;;;;;;12.07;9.70;;;-1.40;1.00;;;;;;5005801;28;20268;-77
2022/11/20 09:08:34;;;;;;;64.53;42.93;;;-0.80;1.00;;;;;;5004617;28;20175;-76
2022/11/20 09:10:59;;;;;;;24.30;16.07;;;-1.40;1.00;;;;;;5006057;28;20207;-78
2022/11/20 09:13:27;;;;;;;25.27;15.17;;;-1.30;1.00;;;;;;5006695;28;20598;-78
2022/11/20 09:15:54;;;;;;;41.20;23.13;;;-1.30;1.00;;;;;;5020571;28;20605;-77
2022/11/20 09:18:20;;;;;;;33.97;19.27;;;-1.20;5.90;;;;;;5012167;28;20202;-77
2022/11/20 09:20:46;;;;;;;18.90;13.40;;;-1.10;1.00;;;;;;5007675;28;20245;-76
2022/11/20 09:23:12;;;;;;;17.50;12.73;;;-1.10;1.00;;;;;;5009197;28;20302;-79
2022/11/20 09:25:37;;;;;;;19.33;13.87;;;-1.00;1.00;;;;;;5010168;28;20212;-80
2022/11/20 09:28:03;;;;;;;19.97;14.33;;;-1.00;1.00;;;;;;5008663;28;20192;-81
2022/11/20 09:30:28;;;;;;;15.63;12.10;;;-1.00;1.00;;;;;;5008105;28;20184;-81
2022/11/20 09:32:54;;;;;;;12.10;9.77;;;-1.00;1.00;;;;;;5008903;28;20206;-78
2022/11/20 09:35:20;;;;;;;10.57;7.63;;;-1.00;1.00;;;;;;5009006;28;20239;-77
2022/11/20 09:37:45;;;;;;;10.27;7.53;;;-1.00;1.00;;;;;;5006294;28;20291;-79
2022/11/20 09:40:21;;;;;;;9.30;7.27;;;-1.00;1.00;;;;;;5009763;28;21120;-79
2022/11/20 09:43:11;;;;;;;10.67;8.43;;;-0.80;1.00;;;;;;5012681;28;20623;-79
2022/11/20 09:46:14;;;;;;;12.10;9.03;;;-0.80;1.00;;;;;;5008238;28;20214;-78
2022/11/20 09:48:54;;;;;;;13.00;9.30;;;-0.70;1.00;;;;;;5007420;28;20709;-78
2022/11/20 09:51:46;;;;;;;21.57;16.00;;;-0.60;1.00;;;;;;5010244;28;20195;-79
2022/11/20 09:54:20;;;;;;;12.17;8.83;;;-0.60;1.00;;;;;;5011507;28;20585;-76
2022/11/20 09:56:54;;;;;;;9.83;8.40;;;-0.60;1.00;;;;;;5010453;28;20230;-76
2022/11/20 09:59:34;;;;;;;8.37;7.20;;;-0.70;1.00;;;;;;5011382;28;20171;-78
2022/11/20 10:02:01;;;;;;;9.43;8.27;;;-0.70;1.00;;;;;;5009260;28;20203;-78
2022/11/20 10:04:31;;;;;;;9.40;7.77;;;-0.50;1.00;;;;;;5012924;28;20206;-78
2022/11/20 10:07:07;;;;;;;8.40;6.47;;;-0.40;1.00;;;;;;5010550;28;20608;-78
2022/11/20 10:09:37;;;;;;;7.77;6.47;;;-0.30;1.00;;;;;;5008991;28;20290;-78
2022/11/20 10:12:48;;;;;;;12.83;10.87;;;-0.20;1.00;;;;;;5024184;28;20215;-77
2022/11/20 10:15:54;;;;;;;8.30;6.87;;;-0.10;1.00;;;;;;5011578;28;20697;-84
2022/11/20 10:18:32;;;;;;;9.00;8.07;;;0.00;1.00;;;;;;5001196;28;20191;-78
2022/11/20 10:21:11;;;;;;;6.80;6.10;;;0.10;1.00;;;;;;5008401;28;20278;-77
2022/11/20 10:23:48;;;;;;;7.97;6.80;;;0.00;1.00;;;;;;5007613;28;20183;-77
2022/11/20 10:26:31;;;;;;;8.87;7.20;;;0.30;1.00;;;;;;5007572;28;20199;-76
2022/11/20 10:29:06;;;;;;;8.07;6.97;;;0.40;1.00;;;;;;5007582;28;20176;-78
2022/11/20 10:31:37;;;;;;;7.07;6.33;;;0.20;1.00;;;;;;5006672;28;20183;-77
2022/11/20 10:34:28;;;;;;;8.00;6.93;;;0.10;1.00;;;;;;5007826;28;20266;-77
2022/11/20 10:37:11;;;;;;;8.70;7.80;;;0.40;1.00;;;;;;5023146;28;20854;-78
2022/11/20 10:39:50;;;;;;;7.17;6.07;;;0.30;1.00;;;;;;5007070;28;20862;-77
2022/11/20 10:42:34;;;;;;;7.30;6.30;;;0.20;1.00;;;;;;5007218;28;20312;-76
2022/11/20 10:45:16;;;;;;;8.13;6.37;;;0.30;1.00;;;;;;5003916;28;20207;-76
2022/11/20 10:47:41;;;;;;;8.90;6.40;;;0.30;1.00;;;;;;5004992;28;20274;-76
2022/11/20 10:50:14;;;;;;;8.13;6.83;;;0.40;1.00;;;;;;5005042;28;20676;-76
2022/11/20 10:53:08;;;;;;;7.47;6.50;;;0.60;1.00;;;;;;5004708;28;20298;-77
2022/11/20 10:55:52;;;;;;;8.50;6.87;;;0.70;1.00;;;;;;5006601;28;20226;-77
2022/11/20 10:58:45;;;;;;;7.57;6.73;;;0.70;1.00;;;;;;5006651;28;20188;-77
2022/11/20 11:01:15;;;;;;;7.90;6.53;;;0.80;1.00;;;;;;5011049;28;20183;-79
2022/11/20 11:03:45;;;;;;;7.13;6.20;;;0.90;1.00;;;;;;5008249;28;20176;-77
2022/11/20 11:06:15;;;;;;;6.30;5.70;;;1.00;1.00;;;;;;5005681;28;20207;-77
2022/11/20 11:08:42;;;;;;;8.63;6.93;;;1.00;1.00;;;;;;5008113;28;20548;-76
2022/11/20 11:11:25;;;;;;;8.20;6.23;;;0.90;1.00;;;;;;5007432;28;20273;-77
2022/11/20 11:13:50;;;;;;;7.27;6.07;;;0.90;1.00;;;;;;5010442;28;20283;-77
2022/11/20 11:16:25;;;;;;;8.17;6.90;;;0.90;1.00;;;;;;5006040;28;20292;-76
2022/11/20 11:18:51;;;;;;;20.37;14.57;;;1.00;1.00;;;;;;5006638;28;20183;-80
2022/11/20 11:21:25;;;;;;;9.90;7.53;;;1.10;1.00;;;;;;5008912;28;20188;-77
2022/11/20 11:24:02;;;;;;;10.30;7.07;;;1.10;1.00;;;;;;5005359;28;20796;-77
2022/11/20 11:26:28;;;;;;;9.80;7.57;;;1.10;1.00;;;;;;5005437;28;20247;-77
2022/11/20 11:28:59;;;;;;;11.67;7.67;;;1.00;1.00;;;;;;5005085;28;20227;-76
2022/11/20 11:31:27;;;;;;;11.10;7.53;;;1.00;1.00;;;;;;5005723;28;20219;-77
2022/11/20 11:34:03;;;;;;;11.40;7.70;;;1.10;1.00;;;;;;5003320;28;20286;-75
2022/11/20 11:36:28;;;;;;;10.10;8.00;;;1.00;1.00;;;;;;5002841;28;20584;-77
2022/11/20 11:38:54;;;;;;;8.80;7.07;;;0.90;1.00;;;;;;5005599;28;20196;-77
2022/11/20 11:41:28;;;;;;;9.40;7.10;;;0.90;1.00;;;;;;5005578;28;20192;-77
2022/11/20 11:46:58;;;;;;;10.30;8.03;;;1.00;1.00;;;;;;5003490;28;20214;-76
2022/11/20 11:49:24;;;;;;;12.20;8.97;;;1.20;1.00;;;;;;5004792;28;20183;-76
2022/11/20 11:51:59;;;;;;;9.83;8.40;;;1.20;1.00;;;;;;5007107;28;20539;-78
2022/11/20 11:55:16;;;;;;;11.00;8.33;;;1.40;1.00;;;;;;5005333;28;20199;-76
2022/11/20 11:57:49;;;;;;;10.40;7.80;;;1.60;1.00;;;;;;5014486;28;20931;-78
2022/11/20 12:00:23;;;;;;;12.20;8.13;;;1.70;1.00;;;;;;5000243;28;20278;-78
2022/11/20 12:03:04;;;;;;;11.93;7.80;;;2.00;1.00;;;;;;5000729;28;20214;-77
2022/11/20 12:05:39;;;;;;;10.53;6.90;;;2.30;1.00;;;;;;5000649;28;20203;-77
2022/11/20 12:08:29;;;;;;;9.40;6.27;;;2.40;1.00;;;;;;5000862;28;20235;-77
2022/11/20 12:11:19;;;;;;;9.37;6.20;;;2.50;1.00;;;;;;5001244;28;20493;-77
2022/11/20 12:14:01;;;;;;;8.67;6.63;;;2.50;1.00;;;;;;5003513;28;20191;-78
2022/11/20 12:16:28;;;;;;;10.33;6.57;;;2.60;1.00;;;;;;5004051;28;20206;-77
2022/11/20 12:18:53;;;;;;;7.33;5.97;;;2.60;1.00;;;;;;5004013;28;20195;-78
2022/11/20 12:21:24;;;;;;;6.70;5.43;;;2.60;1.00;;;;;;5003559;28;20183;-77
2022/11/20 12:24:34;;;;;;;9.10;5.93;;;2.60;1.00;;;;;;5000384;28;20188;-76
2022/11/20 12:27:03;;;;;;;7.60;6.03;;;2.70;1.00;;;;;;5002853;28;20850;-77
2022/11/20 12:29:43;;;;;;;6.90;6.10;;;2.60;1.00;;;;;;5000319;28;20188;-77
2022/11/20 12:32:14;;;;;;;9.50;6.17;;;2.60;1.00;;;;;;5000570;28;20206;-77
2022/11/20 12:35:03;;;;;;;7.43;6.27;;;2.60;1.00;;;;;;5001096;28;20305;-76
2022/11/20 12:37:46;;;;;;;6.70;5.93;;;2.60;1.00;;;;;;4999345;28;20657;-76
2022/11/20 12:40:39;;;;;;;7.90;6.10;;;2.60;1.00;;;;;;5000782;28;20194;-77
2022/11/20 12:46:33;;;;;;;7.70;5.90;;;2.60;1.00;;;;;;5001120;28;20296;-75
2022/11/20 12:49:01;;;;;;;7.57;6.40;;;2.60;1.00;;;;;;5001417;28;20187;-77
2022/11/20 12:51:42;;;;;;;7.07;5.87;;;2.60;1.00;;;;;;5002552;28;20202;-77
2022/11/20 12:54:24;;;;;;;7.77;5.83;;;2.50;1.00;;;;;;4999703;28;20190;-77
2022/11/20 12:57:19;;;;;;;6.63;5.03;;;2.30;1.00;;;;;;5000820;28;20234;-78
2022/11/20 13:00:07;;;;;;;6.10;5.30;;;2.20;1.00;;;;;;5000168;28;20689;-77
2022/11/20 13:03:19;;;;;;;8.07;6.03;;;2.10;1.00;;;;;;5015125;28;21020;-77